Time;durP1;ratioP1;P1;durP2;ratioP2;P2;SDS_P1;SDS_P2;PMS_P1;PMS_P2;Temp;Humidity;BMP_temperature;BMP_pressure;BME280_temperature;BME280_humidity;BME280_pressure;Samples;Min_cycle;Max_cycle;Signal;HPM_P1;HPM_P2
2021/10/09 00:00:41;;;;;;;30.88;24.08;;;;;;;1.73;100.00;100588.69;2116723;27;20213;-77
2021/10/09 00:01:47;;;;;;;34.90;24.70;;;;;;;1.75;100.00;100584.06;2116142;28;20280;-77
2021/10/09 00:02:58;;;;;;;31.67;24.27;;;;;;;1.72;100.00;100582.63;2116786;28;20185;-77
2021/10/09 00:04:02;;;;;;;36.75;24.98;;;;;;;1.75;100.00;100589.34;2116931;28;20602;-77
2021/10/09 00:05:06;;;;;;;31.88;24.23;;;;;;;1.72;100.00;100587.06;2116700;28;20246;-77
2021/10/09 00:06:11;;;;;;;36.00;24.98;;;;;;;1.68;100.00;100581.41;2116050;28;20749;-77
2021/10/09 00:07:17;;;;;;;29.45;24.88;;;;;;;1.67;100.00;100577.16;2115846;28;20661;-77
2021/10/09 00:08:27;;;;;;;29.63;24.42;;;;;;;1.65;100.00;100580.00;2116096;28;20204;-78
2021/10/09 00:09:33;;;;;;;29.67;24.30;;;;;;;1.62;100.00;100580.38;2116544;28;20348;-77
2021/10/09 00:10:43;;;;;;;32.55;25.02;;;;;;;1.60;100.00;100577.16;2115803;28;20189;-77
2021/10/09 00:11:48;;;;;;;31.85;24.83;;;;;;;1.59;100.00;100572.91;2116167;27;20197;-78
2021/10/09 00:12:53;;;;;;;28.98;24.60;;;;;;;1.58;100.00;100576.56;2108222;28;20228;-77
2021/10/09 00:13:58;;;;;;;28.98;24.45;;;;;;;1.55;100.00;100576.94;2108369;28;20202;-78
2021/10/09 00:15:02;;;;;;;31.90;24.63;;;;;;;1.53;100.00;100573.69;2108871;28;20231;-77
2021/10/09 00:16:10;;;;;;;30.13;24.60;;;;;;;1.52;100.00;100576.53;2116511;27;20199;-77
2021/10/09 00:17:19;;;;;;;30.48;24.20;;;;;;;1.50;100.00;100574.09;2115987;28;20238;-77
2021/10/09 00:18:24;;;;;;;34.17;25.17;;;;;;;1.50;100.00;100575.94;2116382;28;20550;-77
2021/10/09 00:19:25;;;;;;;30.15;24.08;;;;;;;1.50;100.00;100571.47;2107551;28;20209;-77
2021/10/09 00:20:31;;;;;;;35.72;25.05;;;;;;;1.48;100.00;100573.50;2116140;28;20275;-77
2021/10/09 00:21:43;;;;;;;31.77;24.35;;;;;;;1.47;100.00;100574.47;2116072;28;20189;-77
2021/10/09 00:22:49;;;;;;;32.40;23.27;;;;;;;1.46;100.00;100567.59;2116251;28;20216;-77
2021/10/09 00:24:00;;;;;;;31.67;24.20;;;;;;;1.43;100.00;100565.38;2115954;28;20228;-77
2021/10/09 00:25:07;;;;;;;34.35;24.25;;;;;;;1.40;100.00;100565.78;2115536;28;20201;-77
2021/10/09 00:26:11;;;;;;;34.70;23.77;;;;;;;1.39;100.00;100575.50;2108938;28;20206;-77
2021/10/09 00:27:13;;;;;;;29.13;24.50;;;;;;;1.37;100.00;100569.59;2107439;28;20217;-77
2021/10/09 00:28:17;;;;;;;31.85;24.55;;;;;;;1.31;100.00;100562.53;2107466;28;20197;-77
2021/10/09 00:29:26;;;;;;;36.42;24.75;;;;;;;1.34;100.00;100571.84;2116051;28;20201;-77
2021/10/09 00:30:33;;;;;;;30.95;24.40;;;;;;;1.30;100.00;100570.59;2116082;28;20596;-77
2021/10/09 00:31:44;;;;;;;28.52;23.33;;;;;;;1.28;100.00;100565.53;2116115;28;20292;-77
2021/10/09 00:32:50;;;;;;;33.10;24.48;;;;;;;1.26;100.00;100566.75;2115971;28;20176;-77
2021/10/09 00:33:53;;;;;;;28.90;23.92;;;;;;;1.23;100.00;100573.22;2116549;28;20196;-77
2021/10/09 00:34:59;;;;;;;35.20;24.35;;;;;;;1.24;100.00;100568.78;2116161;27;20228;-77
2021/10/09 00:36:02;;;;;;;31.02;23.60;;;;;;;1.22;100.00;100570.78;2116237;28;20648;-77
2021/10/09 00:37:11;;;;;;;29.50;23.05;;;;;;;1.20;100.00;100572.78;2116025;27;20278;-77
2021/10/09 00:38:17;;;;;;;30.77;22.98;;;;;;;1.19;100.00;100579.88;2115948;28;20224;-77
2021/10/09 00:39:23;;;;;;;31.55;23.40;;;;;;;1.17;100.00;100574.00;2116491;28;20192;-77
2021/10/09 00:40:30;;;;;;;30.45;24.52;;;;;;;1.16;100.00;100576.84;2115298;28;20231;-77
2021/10/09 00:41:31;;;;;;;29.90;23.55;;;;;;;1.15;100.00;100575.22;2107772;28;20201;-77
2021/10/09 00:42:34;;;;;;;29.40;24.02;;;;;;;1.10;100.00;100568.72;2107601;28;20288;-77
2021/10/09 00:43:42;;;;;;;31.90;24.60;;;;;;;1.11;100.00;100575.59;2107471;28;20671;-77
2021/10/09 00:44:50;;;;;;;33.08;24.73;;;;;;;1.15;100.00;100575.22;2108742;28;20566;-76
2021/10/09 00:45:58;;;;;;;31.95;24.33;;;;;;;1.14;100.00;100574.41;2115691;28;20189;-76
2021/10/09 00:47:02;;;;;;;31.10;24.23;;;;;;;1.13;100.00;100568.34;2115987;27;20219;-76
2021/10/09 00:48:05;;;;;;;39.08;24.52;;;;;;;1.15;100.00;100578.66;2116149;28;20687;-77
2021/10/09 00:49:15;;;;;;;33.47;25.08;;;;;;;1.16;100.00;100574.19;2116558;28;20550;-76
2021/10/09 00:50:24;;;;;;;33.05;25.75;;;;;;;1.17;100.00;100573.19;2115774;27;20192;-77
2021/10/09 00:51:27;;;;;;;27.92;24.42;;;;;;;1.16;100.00;100575.00;2116174;28;20177;-76
2021/10/09 00:52:32;;;;;;;30.75;23.85;;;;;;;1.20;100.00;100570.97;2115627;28;20197;-77
2021/10/09 00:53:36;;;;;;;31.95;24.20;;;;;;;1.20;100.00;100570.97;2115613;28;20196;-76
2021/10/09 00:54:47;;;;;;;35.40;25.38;;;;;;;1.19;100.00;100576.44;2107858;28;20197;-76
2021/10/09 00:55:53;;;;;;;33.95;25.38;;;;;;;1.19;100.00;100571.16;2115859;28;20173;-77
2021/10/09 00:56:57;;;;;;;32.05;24.05;;;;;;;1.22;100.00;100571.59;2116380;28;20169;-76
2021/10/09 00:58:03;;;;;;;31.38;24.50;;;;;;;1.21;100.00;100566.53;2116436;28;20189;-77
2021/10/09 00:59:11;;;;;;;34.15;24.58;;;;;;;1.21;100.00;100574.41;2115986;27;20197;-76
2021/10/09 01:00:17;;;;;;;33.35;25.15;;;;;;;1.19;100.00;100568.53;2107760;28;20252;-77
2021/10/09 01:01:22;;;;;;;37.65;24.80;;;;;;;1.19;100.00;100571.97;2107992;28;20213;-76
2021/10/09 01:02:28;;;;;;;30.25;22.80;;;;;;;1.17;100.00;100575.81;2107448;28;20204;-76
2021/10/09 01:03:31;;;;;;;27.00;22.98;;;;;;;1.17;100.00;100565.31;2107581;28;20205;-76
2021/10/09 01:04:35;;;;;;;36.25;24.13;;;;;;;1.18;100.00;100562.47;2107538;28;20276;-76
2021/10/09 01:05:41;;;;;;;28.17;23.60;;;;;;;1.23;100.00;100567.16;2115754;28;20212;-77
2021/10/09 01:06:52;;;;;;;31.77;24.17;;;;;;;1.26;100.00;100566.75;2116447;28;20169;-76
2021/10/09 01:08:00;;;;;;;28.27;23.67;;;;;;;1.26;100.00;100564.94;2115862;27;20669;-77
2021/10/09 01:09:06;;;;;;;30.30;24.13;;;;;;;1.29;100.00;100571.59;2115546;28;20651;-76
2021/10/09 01:10:12;;;;;;;32.70;24.25;;;;;;;1.37;100.00;100569.59;2107523;28;20205;-77
2021/10/09 01:11:15;;;;;;;33.38;24.88;;;;;;;1.40;100.00;100563.16;2107337;28;20699;-77
2021/10/09 01:12:17;;;;;;;31.98;24.40;;;;;;;1.34;100.00;100551.59;2115531;28;20200;-76
2021/10/09 01:13:23;;;;;;;29.15;24.38;;;;;;;1.38;100.00;100549.38;2107165;28;20682;-76
2021/10/09 01:14:28;;;;;;;29.17;24.67;;;;;;;1.40;100.00;100557.91;2108077;28;20208;-76
2021/10/09 01:15:37;;;;;;;36.17;25.05;;;;;;;1.39;100.00;100551.84;2107897;28;20216;-76
2021/10/09 01:16:46;;;;;;;33.65;24.13;;;;;;;1.38;100.00;100555.44;2108490;28;20205;-76
2021/10/09 01:17:52;;;;;;;32.90;24.33;;;;;;;1.38;100.00;100557.28;2115658;28;20588;-76
2021/10/09 01:18:57;;;;;;;29.05;24.08;;;;;;;1.37;100.00;100561.72;2115497;28;20188;-77
2021/10/09 01:20:02;;;;;;;39.28;24.65;;;;;;;1.36;100.00;100556.66;2115579;28;20698;-76
2021/10/09 01:21:11;;;;;;;28.92;23.98;;;;;;;1.39;100.00;100558.88;2115562;28;20212;-76
2021/10/09 01:22:26;;;;;;;28.25;24.00;;;;;;;1.40;100.00;100552.66;2108480;28;20281;-76
2021/10/09 01:23:28;;;;;;;35.20;24.85;;;;;;;1.55;100.00;100553.25;2108532;28;20249;-76
2021/10/09 01:24:38;;;;;;;33.35;25.15;;;;;;;1.51;100.00;100544.16;2107791;28;20276;-76
2021/10/09 01:25:43;;;;;;;29.67;24.13;;;;;;;1.68;100.00;100548.03;2107991;28;20198;-76
2021/10/09 01:26:46;;;;;;;31.70;23.92;;;;;;;1.68;100.00;100553.28;2115638;28;20273;-77
2021/10/09 01:27:52;;;;;;;34.70;25.33;;;;;;;1.61;100.00;100554.28;2115433;28;20296;-76
2021/10/09 01:28:55;;;;;;;28.52;24.63;;;;;;;1.61;100.00;100549.84;2107850;28;20220;-77
2021/10/09 01:29:59;;;;;;;32.95;24.88;;;;;;;1.63;100.00;100544.38;2115287;28;20193;-76
2021/10/09 01:31:01;;;;;;;28.55;23.38;;;;;;;1.60;100.00;100550.03;2107491;28;20258;-76
2021/10/09 01:32:06;;;;;;;29.85;24.13;;;;;;;1.54;100.00;100543.75;2107426;28;20302;-76
2021/10/09 01:33:08;;;;;;;34.00;24.27;;;;;;;1.51;100.00;100548.63;2106452;28;20202;-76
2021/10/09 01:34:12;;;;;;;30.67;24.50;;;;;;;1.46;100.00;100546.56;2106999;28;20231;-76
2021/10/09 01:35:16;;;;;;;34.65;24.30;;;;;;;1.44;100.00;100545.16;2107437;28;20258;-76
2021/10/09 01:36:21;;;;;;;32.40;24.58;;;;;;;1.40;100.00;100539.50;2107574;28;20225;-76
2021/10/09 01:37:25;;;;;;;30.48;23.90;;;;;;;1.41;100.00;100543.75;2107392;28;20201;-76
2021/10/09 01:38:28;;;;;;;27.85;24.48;;;;;;;1.41;100.00;100541.91;2107140;28;20197;-77
2021/10/09 01:39:32;;;;;;;34.47;25.17;;;;;;;1.39;100.00;100536.06;2107437;28;20629;-76
2021/10/09 01:40:34;;;;;;;29.23;24.02;;;;;;;1.38;100.00;100538.84;2107568;28;20197;-76
2021/10/09 01:41:41;;;;;;;33.17;24.02;;;;;;;1.35;100.00;100545.34;2115319;28;20192;-77
2021/10/09 01:42:45;;;;;;;32.33;24.98;;;;;;;1.34;100.00;100543.72;2107808;28;20190;-76
2021/10/09 01:43:49;;;;;;;31.05;25.17;;;;;;;1.30;100.00;100539.03;2107153;28;20198;-77
2021/10/09 01:44:52;;;;;;;29.98;23.45;;;;;;;1.28;100.00;100543.69;2106767;28;20197;-76
2021/10/09 01:45:58;;;;;;;36.72;25.55;;;;;;;1.23;100.00;100541.69;2115366;28;20186;-76
2021/10/09 01:47:02;;;;;;;33.33;24.98;;;;;;;1.26;100.00;100537.84;2115590;27;20212;-77
2021/10/09 01:48:08;;;;;;;31.92;24.73;;;;;;;1.28;100.00;100541.06;2107587;28;20190;-76
2021/10/09 01:49:11;;;;;;;33.67;24.55;;;;;;;1.23;100.00;100541.69;2106891;28;20197;-76
2021/10/09 01:50:15;;;;;;;34.72;25.17;;;;;;;1.22;100.00;100537.44;2106344;28;20196;-77
2021/10/09 01:51:21;;;;;;;30.48;24.33;;;;;;;1.19;100.00;100540.44;2107262;28;20251;-76
2021/10/09 01:52:25;;;;;;;37.50;25.20;;;;;;;1.18;100.00;100541.44;2107491;28;20248;-76
2021/10/09 01:53:29;;;;;;;29.15;24.77;;;;;;;1.18;100.00;100530.13;2107601;28;20296;-76
2021/10/09 01:54:32;;;;;;;31.90;25.65;;;;;;;1.19;100.00;100539.63;2115178;28;20197;-76
2021/10/09 01:55:36;;;;;;;31.95;24.45;;;;;;;1.23;100.00;100536.41;2106817;28;20197;-76
2021/10/09 01:56:40;;;;;;;32.13;24.60;;;;;;;1.29;100.00;100540.06;2107267;28;20198;-76
2021/10/09 01:57:45;;;;;;;30.05;24.13;;;;;;;1.36;100.00;100544.31;2107517;28;20633;-76
2021/10/09 01:58:49;;;;;;;35.92;25.13;;;;;;;1.41;100.00;100534.03;2106923;28;20239;-76
2021/10/09 01:59:58;;;;;;;32.75;24.60;;;;;;;1.35;100.00;100539.28;2115000;28;20570;-76
2021/10/09 02:01:22;;;;;;;32.25;24.20;;;;;;;1.28;100.00;100534.00;2115460;28;20180;-76
2021/10/09 02:02:24;;;;;;;31.80;24.83;;;;;;;1.29;100.00;100532.16;2115149;28;20200;-76
2021/10/09 02:03:28;;;;;;;30.03;24.17;;;;;;;1.31;100.00;100540.69;2106717;28;20201;-76
2021/10/09 02:04:31;;;;;;;32.88;25.40;;;;;;;1.28;100.00;100531.34;2115281;28;20852;-77
2021/10/09 02:05:36;;;;;;;33.08;25.05;;;;;;;1.23;100.00;100532.97;2115062;28;20206;-76
2021/10/09 02:06:41;;;;;;;29.95;25.52;;;;;;;1.22;100.00;100540.06;2115263;28;20197;-77
2021/10/09 02:07:46;;;;;;;32.53;24.98;;;;;;;1.19;100.00;100542.25;2115308;28;20561;-76
2021/10/09 02:08:47;;;;;;;32.60;25.27;;;;;;;1.15;100.00;100541.84;2107303;28;20225;-76
2021/10/09 02:09:53;;;;;;;29.30;25.65;;;;;;;1.16;100.00;100542.66;2106826;28;20212;-76
2021/10/09 02:10:59;;;;;;;31.38;25.50;;;;;;;1.10;100.00;100541.63;2114782;28;20587;-76
2021/10/09 02:12:03;;;;;;;33.13;24.88;;;;;;;1.09;100.00;100546.06;2107363;28;20205;-76
2021/10/09 02:13:07;;;;;;;30.83;24.88;;;;;;;1.09;100.00;100540.81;2107192;28;20205;-76
2021/10/09 02:14:19;;;;;;;36.60;25.83;;;;;;;1.12;100.00;100540.41;2115008;28;20189;-76
2021/10/09 02:15:24;;;;;;;29.63;24.77;;;;;;;1.09;100.00;100542.63;2108107;28;20314;-77
2021/10/09 02:17:04;;;;;;;34.72;24.75;;;;;;;1.06;100.00;100545.66;2107095;28;20744;-76
2021/10/09 02:18:26;;;;;;;31.15;24.95;;;;;;;0.97;100.00;100547.66;2112323;28;20249;-76
2021/10/09 02:24:57;;;;;;;37.50;26.35;;;;;;;1.08;100.00;100549.72;2115060;28;20200;-76
2021/10/09 02:25:59;;;;;;;35.78;25.48;;;;;;;1.02;100.00;100539.97;2107361;28;20197;-76
2021/10/09 02:27:03;;;;;;;39.83;25.33;;;;;;;1.04;100.00;100545.88;2107119;28;20202;-76
2021/10/09 02:28:06;;;;;;;34.60;25.55;;;;;;;1.00;100.00;100544.63;2106612;28;20718;-76
2021/10/09 02:29:10;;;;;;;32.30;25.20;;;;;;;0.95;100.00;100546.22;2106940;28;20201;-76
2021/10/09 02:30:11;;;;;;;32.55;25.23;;;;;;;0.93;100.00;100548.22;2106946;28;20595;-76
2021/10/09 02:31:14;;;;;;;37.25;26.35;;;;;;;0.91;100.00;100545.00;2114939;28;20181;-76
2021/10/09 02:32:17;;;;;;;37.15;25.17;;;;;;;0.94;100.00;100545.41;2107047;28;20202;-76
2021/10/09 02:33:21;;;;;;;30.25;25.45;;;;;;;0.89;100.00;100542.56;2107022;28;20197;-76
2021/10/09 02:34:23;;;;;;;32.13;25.30;;;;;;;0.86;100.00;100542.94;2114943;28;20189;-76
2021/10/09 02:35:28;;;;;;;30.63;25.10;;;;;;;0.85;100.00;100543.94;2114367;28;20193;-76
2021/10/09 02:36:29;;;;;;;31.92;25.13;;;;;;;0.81;100.00;100542.72;2115031;28;20185;-76
2021/10/09 02:37:34;;;;;;;29.73;25.17;;;;;;;0.77;100.00;100538.84;2114887;28;20678;-76
2021/10/09 02:38:37;;;;;;;40.30;24.95;;;;;;;0.85;100.00;100549.19;2107010;28;20289;-76
2021/10/09 02:39:40;;;;;;;30.45;24.08;;;;;;;0.90;100.00;100540.75;2106869;28;20221;-76
2021/10/09 02:40:43;;;;;;;32.53;25.55;;;;;;;0.93;100.00;100551.66;2114847;28;20200;-77
2021/10/09 02:41:47;;;;;;;31.35;24.83;;;;;;;0.92;100.00;100549.25;2114446;28;20280;-76
2021/10/09 02:42:50;;;;;;;30.50;25.00;;;;;;;0.87;100.00;100552.47;2106778;28;20189;-76
2021/10/09 02:43:54;;;;;;;33.85;24.73;;;;;;;0.85;100.00;100542.13;2106321;28;20725;-76
2021/10/09 02:44:57;;;;;;;34.17;25.40;;;;;;;0.83;100.00;100549.41;2106646;28;20221;-76
2021/10/09 02:45:59;;;;;;;40.17;26.13;;;;;;;0.95;100.00;100547.03;2114900;28;20189;-76
2021/10/09 02:47:06;;;;;;;31.65;25.02;;;;;;;0.92;100.00;100544.78;2115110;28;20601;-76
2021/10/09 02:48:11;;;;;;;29.27;24.60;;;;;;;0.89;100.00;100544.38;2106798;28;20715;-75
2021/10/09 02:49:19;;;;;;;34.72;25.27;;;;;;;0.83;100.00;100544.16;2107965;28;20251;-75
2021/10/09 02:50:21;;;;;;;31.92;25.17;;;;;;;0.80;100.00;100535.88;2115055;28;20196;-75
2021/10/09 02:51:25;;;;;;;31.27;25.70;;;;;;;0.79;100.00;100547.38;2114773;28;20192;-75
2021/10/09 02:52:28;;;;;;;30.63;25.75;;;;;;;0.73;100.00;100542.91;2106595;28;20544;-75
2021/10/09 02:53:34;;;;;;;36.42;25.50;;;;;;;0.68;100.00;100553.97;2106480;28;20684;-75
2021/10/09 02:54:36;;;;;;;31.05;25.13;;;;;;;0.65;100.00;100543.88;2106713;28;20228;-75
2021/10/09 02:55:40;;;;;;;34.28;27.88;;;;;;;0.60;100.00;100550.69;2114970;28;20189;-75
2021/10/09 02:56:42;;;;;;;38.72;26.08;;;;;;;0.55;100.00;100546.84;2115017;28;20742;-75
2021/10/09 02:57:45;;;;;;;32.75;26.58;;;;;;;0.53;100.00;100546.25;2105487;28;20655;-75
2021/10/09 02:58:47;;;;;;;35.60;25.45;;;;;;;0.49;100.00;100547.63;2106403;28;20300;-76
2021/10/09 02:59:52;;;;;;;31.92;24.95;;;;;;;0.46;100.00;100547.19;2106677;28;20240;-75
2021/10/09 03:00:56;;;;;;;32.95;25.60;;;;;;;0.44;100.00;100552.66;2114701;28;20231;-75
2021/10/09 03:02:00;;;;;;;40.35;27.00;;;;;;;0.42;100.00;100554.63;2106531;28;20561;-76
2021/10/09 03:03:02;;;;;;;34.50;26.23;;;;;;;0.40;100.00;100548.78;2114787;28;20695;-75
2021/10/09 03:04:08;;;;;;;38.17;26.13;;;;;;;0.39;100.00;100549.78;2114955;28;20753;-76
2021/10/09 03:05:11;;;;;;;30.45;25.85;;;;;;;0.37;100.00;100551.78;2107221;28;20610;-76
2021/10/09 03:06:15;;;;;;;34.15;26.52;;;;;;;0.36;100.00;100550.16;2106641;28;20223;-76
2021/10/09 03:07:17;;;;;;;42.63;26.67;;;;;;;0.33;100.00;100553.16;2114745;28;20193;-76
2021/10/09 03:08:21;;;;;;;31.83;25.33;;;;;;;0.37;100.00;100557.03;2114520;28;20255;-76
2021/10/09 03:09:26;;;;;;;34.72;26.75;;;;;;;0.37;100.00;100562.28;2106966;28;20201;-76
2021/10/09 03:10:32;;;;;;;33.13;25.58;;;;;;;0.37;100.00;100570.16;2114637;28;20193;-76
2021/10/09 03:11:36;;;;;;;39.25;26.27;;;;;;;0.36;100.00;100562.50;2115002;28;20599;-76
2021/10/09 03:12:40;;;;;;;36.35;26.70;;;;;;;0.43;100.00;100565.94;2106813;28;20574;-76
2021/10/09 03:13:43;;;;;;;32.33;26.05;;;;;;;0.42;100.00;100562.50;2106969;28;20675;-76
2021/10/09 03:14:47;;;;;;;41.05;27.33;;;;;;;0.47;100.00;100568.00;2106657;28;20582;-76
2021/10/09 03:15:51;;;;;;;32.42;26.10;;;;;;;0.49;100.00;100567.81;2106575;28;20200;-75
2021/10/09 03:16:55;;;;;;;35.05;26.33;;;;;;;0.49;100.00;100563.38;2106906;28;20247;-76
2021/10/09 03:17:59;;;;;;;38.60;25.80;;;;;;;0.53;100.00;100567.25;2114618;28;20616;-76
2021/10/09 03:19:01;;;;;;;36.30;26.00;;;;;;;0.55;100.00;100564.41;2106680;28;20197;-76
2021/10/09 03:20:03;;;;;;;34.70;25.50;;;;;;;0.52;100.00;100556.91;2114706;28;20294;-76
2021/10/09 03:21:07;;;;;;;31.48;25.67;;;;;;;0.61;100.00;100565.44;2106438;28;20460;-76
2021/10/09 03:22:10;;;;;;;36.97;26.38;;;;;;;0.65;100.00;100564.88;2114922;28;20320;-76
2021/10/09 03:23:13;;;;;;;31.92;24.95;;;;;;;0.67;100.00;100565.47;2114595;28;20695;-76
2021/10/09 03:24:16;;;;;;;33.85;26.17;;;;;;;0.64;100.00;100568.50;2106694;28;20197;-76
2021/10/09 03:25:20;;;;;;;36.50;26.33;;;;;;;0.62;100.00;100564.47;2106355;28;20739;-76
2021/10/09 03:26:23;;;;;;;32.70;26.88;;;;;;;0.71;100.00;100569.38;2106535;28;20688;-76
2021/10/09 03:27:26;;;;;;;35.55;26.90;;;;;;;0.72;100.00;100575.44;2106441;28;20246;-76
2021/10/09 03:28:28;;;;;;;33.50;27.35;;;;;;;0.70;100.00;100573.00;2106275;28;20324;-76
2021/10/09 03:29:31;;;;;;;34.88;27.33;;;;;;;0.65;100.00;100578.00;2114667;28;20292;-76
2021/10/09 03:30:33;;;;;;;39.22;27.23;;;;;;;0.61;100.00;100578.56;2114526;28;20209;-76
2021/10/09 03:31:37;;;;;;;32.50;26.52;;;;;;;0.56;100.00;100566.84;2106350;28;20284;-75
2021/10/09 03:32:40;;;;;;;33.65;25.73;;;;;;;0.69;100.00;100575.78;2114724;28;20276;-76
2021/10/09 03:33:43;;;;;;;34.70;26.08;;;;;;;0.61;100.00;100566.28;2114808;28;20722;-76
2021/10/09 03:34:46;;;;;;;41.08;26.23;;;;;;;0.64;100.00;100572.94;2106317;28;20659;-75
2021/10/09 03:35:51;;;;;;;39.97;25.60;;;;;;;0.65;100.00;100575.38;2114829;28;20246;-76
2021/10/09 03:37:02;;;;;;;34.35;24.70;;;;;;;0.61;100.00;100573.31;2107398;28;20201;-76
2021/10/09 03:38:10;;;;;;;32.50;25.25;;;;;;;0.64;100.00;100575.56;2107685;28;20241;-76
2021/10/09 03:39:16;;;;;;;32.70;25.95;;;;;;;0.61;100.00;100575.94;2107623;28;20194;-76
2021/10/09 03:40:24;;;;;;;33.60;26.48;;;;;;;0.55;100.00;100572.28;2114527;28;20197;-76
2021/10/09 03:41:25;;;;;;;37.38;25.85;;;;;;;0.57;100.00;100578.97;2107033;28;20194;-76
2021/10/09 03:42:35;;;;;;;36.75;26.63;;;;;;;0.52;100.00;100575.28;2106192;28;20231;-76
2021/10/09 03:43:46;;;;;;;34.17;25.77;;;;;;;0.50;100.00;100575.47;2115320;28;20200;-76
2021/10/09 03:44:59;;;;;;;33.72;26.05;;;;;;;0.49;100.00;100576.50;2114499;28;20194;-76
2021/10/09 03:46:10;;;;;;;37.95;26.27;;;;;;;0.51;100.00;100576.28;2115060;28;20235;-76
2021/10/09 03:47:22;;;;;;;29.05;25.27;;;;;;;0.52;100.00;100570.88;2114530;28;20204;-76
2021/10/09 03:48:39;;;;;;;31.98;26.38;;;;;;;0.50;100.00;100578.09;2114762;28;20254;-76
2021/10/09 03:49:46;;;;;;;35.03;26.90;;;;;;;0.50;100.00;100572.88;2108608;28;20197;-76
2021/10/09 03:53:46;;;;;;;33.65;25.40;;;;;;;0.60;100.00;100585.63;2100752;28;20618;-77
2021/10/09 03:54:47;;;;;;;31.98;25.95;;;;;;;0.54;100.00;100576.75;2107413;28;20557;-77
2021/10/09 03:55:53;;;;;;;36.00;25.92;;;;;;;0.54;100.00;100583.81;2106162;28;20194;-77
2021/10/09 03:56:54;;;;;;;32.88;25.52;;;;;;;0.53;100.00;100580.38;2108125;28;20189;-77
2021/10/09 03:57:59;;;;;;;31.02;25.63;;;;;;;0.48;100.00;100579.31;2116376;28;20242;-77
2021/10/09 03:59:05;;;;;;;34.53;26.08;;;;;;;0.46;100.00;100587.38;2116623;28;20204;-77
2021/10/09 04:00:13;;;;;;;37.70;25.23;;;;;;;0.41;100.00;100584.50;2108016;28;20278;-76
2021/10/09 04:01:25;;;;;;;32.30;26.77;;;;;;;0.36;100.00;100584.31;2109551;28;20246;-77
2021/10/09 04:02:27;;;;;;;34.55;27.13;;;;;;;0.32;100.00;100585.66;2108437;28;20201;-77
2021/10/09 04:03:31;;;;;;;34.42;27.20;;;;;;;0.30;100.00;100581.63;2107755;28;20189;-77
2021/10/09 04:04:40;;;;;;;34.15;26.83;;;;;;;0.25;100.00;100576.94;2108123;28;20667;-77
2021/10/09 04:05:47;;;;;;;36.70;27.45;;;;;;;0.27;100.00;100572.31;2116231;28;20585;-77
2021/10/09 04:06:59;;;;;;;32.67;26.13;;;;;;;0.26;100.00;100582.00;2116442;27;20612;-77
2021/10/09 04:08:02;;;;;;;39.35;27.23;;;;;;;0.22;100.00;100579.94;2108551;28;20552;-77
2021/10/09 04:09:08;;;;;;;31.52;26.33;;;;;;;0.21;100.00;100592.25;2108253;28;20201;-76
2021/10/09 04:10:13;;;;;;;35.03;26.23;;;;;;;0.18;100.00;100578.72;2107891;28;20224;-77
2021/10/09 04:11:19;;;;;;;32.95;26.27;;;;;;;0.14;100.00;100582.72;2108072;28;20293;-77
2021/10/09 04:12:23;;;;;;;34.30;26.85;;;;;;;0.12;100.00;100584.72;2107898;28;20197;-77
2021/10/09 04:13:32;;;;;;;34.30;27.63;;;;;;;0.06;100.00;100577.59;2108673;28;20209;-77
2021/10/09 04:14:36;;;;;;;39.60;26.63;;;;;;;0.07;100.00;100584.47;2107901;28;20197;-77
2021/10/09 04:15:41;;;;;;;33.90;27.13;;;;;;;0.06;100.00;100595.97;2116333;27;20197;-77
2021/10/09 04:16:43;;;;;;;35.30;27.23;;;;;;;0.02;100.00;100589.47;2107892;28;20209;-76
2021/10/09 04:17:46;;;;;;;34.78;27.23;;;;;;;0.00;100.00;100597.56;2107705;28;20197;-77
2021/10/09 04:18:52;;;;;;;32.67;26.80;;;;;;;-0.04;100.00;100596.28;2107769;28;20198;-77
2021/10/09 04:19:54;;;;;;;33.50;26.20;;;;;;;-0.05;100.00;100595.47;2116236;28;20192;-77
2021/10/09 04:20:59;;;;;;;36.55;27.20;;;;;;;-0.07;100.00;100594.88;2115815;28;20281;-77
2021/10/09 04:22:01;;;;;;;40.55;26.33;;;;;;;-0.06;100.00;100599.09;2108133;28;20561;-77
2021/10/09 04:23:07;;;;;;;37.40;26.63;;;;;;;-0.06;100.00;100599.09;2115852;28;20193;-77
2021/10/09 04:24:09;;;;;;;37.30;27.77;;;;;;;-0.10;100.00;100592.59;2107902;28;20202;-77
2021/10/09 04:25:13;;;;;;;33.30;26.88;;;;;;;-0.11;100.00;100596.22;2107623;28;20656;-77
2021/10/09 04:26:16;;;;;;;34.00;26.98;;;;;;;-0.13;100.00;100598.22;2116118;28;20694;-77
2021/10/09 04:27:20;;;;;;;35.10;26.65;;;;;;;-0.16;100.00;100603.84;2115954;28;20193;-77
2021/10/09 04:28:24;;;;;;;32.13;27.40;;;;;;;-0.19;100.00;100601.59;2107739;28;20218;-77
2021/10/09 04:29:27;;;;;;;37.38;28.35;;;;;;;-0.22;100.00;100588.06;2108141;28;20293;-77
2021/10/09 04:30:31;;;;;;;33.40;27.70;;;;;;;-0.19;100.00;100606.03;2108034;28;20194;-77
2021/10/09 04:31:34;;;;;;;39.25;29.20;;;;;;;-0.21;100.00;100600.97;2108125;28;20699;-76
2021/10/09 04:32:36;;;;;;;40.58;28.75;;;;;;;-0.21;100.00;100605.41;2107624;28;20213;-77
2021/10/09 04:33:42;;;;;;;39.13;28.40;;;;;;;-0.25;100.00;100599.75;2108019;28;20190;-77
2021/10/09 04:34:46;;;;;;;35.10;28.55;;;;;;;-0.26;100.00;100595.50;2107631;28;20198;-77
2021/10/09 04:35:49;;;;;;;35.42;27.83;;;;;;;-0.25;100.00;100599.75;2115862;28;20220;-77
2021/10/09 04:36:55;;;;;;;37.67;27.02;;;;;;;-0.26;100.00;100598.13;2116630;28;20246;-77
2021/10/09 04:38:03;;;;;;;38.63;28.10;;;;;;;-0.29;100.00;100599.28;2115771;28;20201;-77
2021/10/09 04:39:05;;;;;;;36.78;28.83;;;;;;;-0.30;100.00;100597.66;2108653;28;20742;-77
2021/10/09 04:40:12;;;;;;;36.95;28.67;;;;;;;-0.31;100.00;100603.91;2115796;28;20563;-77
2021/10/09 04:41:18;;;;;;;36.15;28.33;;;;;;;-0.31;100.00;100605.72;2115845;28;20213;-77
2021/10/09 04:42:22;;;;;;;35.40;28.25;;;;;;;-0.34;100.00;100600.84;2115918;28;20279;-77
2021/10/09 04:43:26;;;;;;;38.22;28.67;;;;;;;-0.34;100.00;100606.09;2115787;28;20196;-77
2021/10/09 04:44:27;;;;;;;37.80;27.38;;;;;;;-0.34;100.00;100606.09;2115758;28;20643;-77
2021/10/09 04:45:31;;;;;;;35.88;28.25;;;;;;;-0.36;100.00;100603.66;2107259;28;20198;-77
2021/10/09 04:46:35;;;;;;;38.35;28.30;;;;;;;-0.36;100.00;100601.03;2115753;28;20192;-77
2021/10/09 04:47:40;;;;;;;37.72;29.10;;;;;;;-0.38;100.00;100599.59;2107821;28;20338;-77
2021/10/09 04:48:43;;;;;;;41.70;28.85;;;;;;;-0.37;100.00;100611.69;2108235;28;20221;-77
2021/10/09 04:49:52;;;;;;;40.67;28.48;;;;;;;-0.37;100.00;100611.69;2107894;28;20232;-77
2021/10/09 04:51:00;;;;;;;40.08;28.08;;;;;;;-0.37;100.00;100609.09;2108679;28;20344;-77
2021/10/09 04:52:03;;;;;;;39.45;28.30;;;;;;;-0.37;100.00;100603.84;2108617;28;20201;-76
2021/10/09 04:53:07;;;;;;;39.15;28.45;;;;;;;-0.37;100.00;100609.09;2107489;28;20211;-77
2021/10/09 04:54:10;;;;;;;36.35;28.50;;;;;;;-0.38;100.00;100612.72;2115671;28;20222;-77
2021/10/09 04:55:15;;;;;;;41.00;28.80;;;;;;;-0.36;100.00;100618.56;2107480;28;20267;-77
2021/10/09 04:56:24;;;;;;;40.72;27.77;;;;;;;-0.37;100.00;100616.94;2115562;28;20761;-76
2021/10/09 04:57:33;;;;;;;36.85;28.92;;;;;;;-0.36;100.00;100624.63;2108396;28;20193;-77
2021/10/09 04:58:41;;;;;;;32.80;26.95;;;;;;;-0.36;100.00;100618.56;2115440;28;20721;-77
2021/10/09 04:59:50;;;;;;;36.72;28.40;;;;;;;-0.35;100.00;100620.19;2108654;28;20210;-76
2021/10/09 05:00:52;;;;;;;33.47;27.00;;;;;;;-0.35;100.00;100630.69;2107961;28;20213;-77
2021/10/09 05:02:02;;;;;;;41.03;28.98;;;;;;;-0.37;100.00;100616.94;2107364;28;20217;-77
2021/10/09 05:03:07;;;;;;;38.40;28.23;;;;;;;-0.35;100.00;100625.44;2108821;28;20212;-77
2021/10/09 05:04:13;;;;;;;40.75;28.80;;;;;;;-0.33;100.00;100628.69;2106072;28;20284;-77